createdAt,value
2022-11-23T00:01:27.929Z,7.90
2022-11-23T00:03:57.499Z,7.90
2022-11-23T00:06:25.699Z,7.90
2022-11-23T00:08:54.023Z,7.90
2022-11-23T00:11:22.760Z,7.80
2022-11-23T00:13:50.121Z,7.80
2022-11-23T00:16:24.875Z,7.80
2022-11-23T00:18:56.501Z,7.80
2022-11-23T00:21:24.849Z,7.80
2022-11-23T00:23:51.793Z,7.80
2022-11-23T00:26:19.123Z,7.80
2022-11-23T00:28:46.506Z,7.80
2022-11-23T00:31:18.774Z,7.80
2022-11-23T00:33:50.770Z,7.80
2022-11-23T00:36:17.882Z,7.90
2022-11-23T00:38:45.948Z,7.90
2022-11-23T00:41:15.857Z,7.90
2022-11-23T00:43:43.878Z,7.80
2022-11-23T00:46:23.298Z,7.80
2022-11-23T00:48:52.016Z,7.80
2022-11-23T00:51:23.942Z,7.80
2022-11-23T00:53:51.796Z,7.70
2022-11-23T00:56:19.604Z,7.70
2022-11-23T00:58:51.024Z,7.70
2022-11-23T01:01:21.545Z,7.70
2022-11-23T01:03:51.273Z,7.60
2022-11-23T01:06:24.178Z,7.60
2022-11-23T01:08:54.507Z,7.50
2022-11-23T01:11:23.402Z,7.50
2022-11-23T01:13:50.407Z,7.40
2022-11-23T01:16:24.132Z,7.30
2022-11-23T01:18:59.317Z,7.30
2022-11-23T01:21:28.546Z,7.20
2022-11-23T01:23:55.779Z,7.20
2022-11-23T01:26:23.453Z,7.20
2022-11-23T01:28:50.902Z,7.10
2022-11-23T01:31:20.774Z,7.10
2022-11-23T01:33:47.844Z,7.10
2022-11-23T01:36:17.825Z,7.00
2022-11-23T01:38:45.877Z,7.00
2022-11-23T01:41:25.863Z,7.00
2022-11-23T01:43:54.110Z,6.90
2022-11-23T01:46:21.274Z,6.90
2022-11-23T01:49:02.937Z,6.90
2022-11-23T01:51:42.147Z,6.80
2022-11-23T01:54:41.383Z,6.80
2022-11-23T01:57:12.864Z,6.70
2022-11-23T01:59:40.327Z,6.70
2022-11-23T02:02:07.642Z,6.60
2022-11-23T02:04:39.469Z,6.60
2022-11-23T02:07:07.208Z,6.60
2022-11-23T02:09:36.051Z,6.50
2022-11-23T02:12:03.426Z,6.50
2022-11-23T02:14:30.459Z,6.40
2022-11-23T02:17:00.588Z,6.40
2022-11-23T02:19:36.294Z,6.40
2022-11-23T02:22:08.016Z,6.40
2022-11-23T02:24:41.464Z,6.40
2022-11-23T02:27:10.990Z,6.40
2022-11-23T02:29:38.040Z,6.40
2022-11-23T02:32:05.209Z,6.40
2022-11-23T02:34:32.201Z,6.40
2022-11-23T02:37:00.974Z,6.30
2022-11-23T02:39:38.001Z,6.30
2022-11-23T02:42:06.500Z,6.30
2022-11-23T02:45:18.968Z,6.30
2022-11-23T02:47:46.073Z,6.20
2022-11-23T02:50:13.146Z,6.20
2022-11-23T02:52:43.448Z,6.20
2022-11-23T02:55:11.529Z,6.20
2022-11-23T02:57:38.756Z,6.10
2022-11-23T03:00:06.455Z,6.10
2022-11-23T03:02:33.479Z,6.10
2022-11-23T03:05:00.475Z,6.10
2022-11-23T03:07:27.523Z,6.10
2022-11-23T03:09:54.584Z,6.10
2022-11-23T03:12:21.578Z,6.10
2022-11-23T03:14:48.640Z,6.00
2022-11-23T03:17:17.660Z,6.00
2022-11-23T03:19:45.636Z,6.10
2022-11-23T03:22:13.621Z,6.10
2022-11-23T03:24:40.693Z,6.00
2022-11-23T03:27:11.457Z,6.00
2022-11-23T03:29:40.474Z,6.00
2022-11-23T03:32:12.325Z,6.00
2022-11-23T03:34:42.066Z,6.00
2022-11-23T03:37:09.200Z,6.00
2022-11-23T03:39:36.800Z,6.00
2022-11-23T03:42:22.323Z,5.90
2022-11-23T03:44:49.521Z,5.90
2022-11-23T03:47:16.658Z,5.90
2022-11-23T03:49:43.822Z,5.80
2022-11-23T03:52:10.837Z,5.80
2022-11-23T03:54:37.805Z,5.80
2022-11-23T03:57:04.998Z,5.80
2022-11-23T03:59:33.194Z,5.80
2022-11-23T04:02:00.599Z,5.80
2022-11-23T04:04:32.183Z,5.80
2022-11-23T04:07:06.696Z,5.80
2022-11-23T04:09:39.339Z,5.70
2022-11-23T04:12:06.847Z,5.70
2022-11-23T04:14:36.731Z,5.70
2022-11-23T04:17:04.424Z,5.70
2022-11-23T04:19:32.020Z,5.60
2022-11-23T04:22:00.516Z,5.60
2022-11-23T04:24:32.732Z,5.60
2022-11-23T04:27:02.973Z,5.60
2022-11-23T04:29:30.416Z,5.60
2022-11-23T04:31:57.912Z,5.60
2022-11-23T04:34:26.065Z,5.60
2022-11-23T04:36:54.281Z,5.60
2022-11-23T04:39:27.750Z,5.60
2022-11-23T04:42:11.540Z,5.60
2022-11-23T04:44:38.743Z,5.50
2022-11-23T04:47:07.832Z,5.50
2022-11-23T04:49:37.786Z,5.50
2022-11-23T04:52:07.282Z,5.50
2022-11-23T04:54:40.944Z,5.50
2022-11-23T04:57:09.283Z,5.40
2022-11-23T04:59:37.855Z,5.40
2022-11-23T05:02:05.397Z,5.40
2022-11-23T05:04:46.278Z,5.40
2022-11-23T05:07:14.446Z,5.30
2022-11-23T05:09:44.666Z,5.30
2022-11-23T05:12:18.020Z,5.20
2022-11-23T05:14:44.979Z,5.20
2022-11-23T05:17:16.164Z,5.20
2022-11-23T05:19:45.367Z,5.20
2022-11-23T05:22:13.427Z,5.10
2022-11-23T05:24:41.644Z,5.10
2022-11-23T05:27:11.300Z,5.10
2022-11-23T05:29:39.162Z,5.00
2022-11-23T05:32:07.725Z,4.90
2022-11-23T05:34:34.768Z,4.90
2022-11-23T05:37:04.204Z,4.90
2022-11-23T05:39:31.574Z,4.80
2022-11-23T05:42:00.624Z,4.80
2022-11-23T05:44:40.446Z,4.80
2022-11-23T05:47:12.974Z,4.70
2022-11-23T05:49:40.032Z,4.70
2022-11-23T05:52:07.442Z,4.70
2022-11-23T05:54:36.896Z,4.70
2022-11-23T05:57:10.820Z,4.60
2022-11-23T05:59:41.903Z,4.60
2022-11-23T06:02:12.810Z,4.50
2022-11-23T06:04:39.751Z,4.50
2022-11-23T06:07:10.517Z,4.50
2022-11-23T06:09:58.287Z,4.50
2022-11-23T06:12:27.432Z,4.50
2022-11-23T06:14:54.530Z,4.50
2022-11-23T06:17:24.803Z,4.50
2022-11-23T06:19:54.361Z,4.50
2022-11-23T06:22:21.327Z,4.50
2022-11-23T06:24:58.659Z,4.50
2022-11-23T06:27:36.523Z,4.50
2022-11-23T06:30:09.458Z,4.60
2022-11-23T06:32:37.504Z,4.50
2022-11-23T06:35:04.723Z,4.50
2022-11-23T06:37:35.202Z,4.60
2022-11-23T06:40:02.192Z,4.60
2022-11-23T06:42:44.880Z,4.60
2022-11-23T06:45:22.951Z,4.60
2022-11-23T06:47:56.912Z,4.70
2022-11-23T06:50:24.417Z,4.70
2022-11-23T06:52:56.514Z,4.70
2022-11-23T06:55:33.933Z,4.80
2022-11-23T06:58:00.926Z,4.90
2022-11-23T07:00:28.497Z,4.90
2022-11-23T07:02:56.549Z,5.00
2022-11-23T07:05:27.082Z,5.20
2022-11-23T07:07:54.614Z,5.20
2022-11-23T07:10:26.445Z,5.30
2022-11-23T07:13:07.647Z,5.50
2022-11-23T07:15:36.903Z,6.70
2022-11-23T07:18:05.049Z,8.10
2022-11-23T07:20:32.897Z,9.40
2022-11-23T07:23:06.492Z,10.50
2022-11-23T07:25:35.831Z,11.40
2022-11-23T07:28:05.145Z,12.20
2022-11-23T07:30:34.143Z,13.00
2022-11-23T07:33:09.026Z,13.90
2022-11-23T07:35:38.423Z,14.80
2022-11-23T07:38:08.027Z,15.60
2022-11-23T07:40:39.043Z,16.40
2022-11-23T07:43:11.875Z,17.00
2022-11-23T07:45:39.833Z,17.50
2022-11-23T07:48:09.883Z,18.00
2022-11-23T07:50:38.773Z,18.30
2022-11-23T07:53:07.416Z,18.60
2022-11-23T07:55:34.946Z,18.90
2022-11-23T07:58:02.069Z,19.20
2022-11-23T08:00:30.053Z,19.40
2022-11-23T08:05:47.586Z,19.90
2022-11-23T08:08:14.620Z,20.10
2022-11-23T08:10:46.183Z,20.10
2022-11-23T08:13:14.493Z,19.90
2022-11-23T08:15:41.482Z,19.70
2022-11-23T08:18:09.549Z,19.50
2022-11-23T08:20:36.494Z,19.20
2022-11-23T08:23:03.419Z,19.10
2022-11-23T08:25:30.531Z,18.90
2022-11-23T08:27:59.826Z,18.70
2022-11-23T08:30:28.036Z,18.30
2022-11-23T08:32:55.164Z,18.00
2022-11-23T08:35:22.420Z,17.80
2022-11-23T08:37:49.507Z,17.50
2022-11-23T08:40:20.636Z,17.30
2022-11-23T08:42:50.753Z,17.10
2022-11-23T08:45:18.049Z,17.00
2022-11-23T08:47:45.095Z,17.00
2022-11-23T08:50:12.067Z,17.10
2022-11-23T08:52:39.058Z,17.20
2022-11-23T08:55:06.468Z,17.30
2022-11-23T08:57:33.384Z,17.40
2022-11-23T09:00:00.315Z,17.50
2022-11-23T09:02:27.304Z,17.70
2022-11-23T09:04:54.210Z,17.90
2022-11-23T09:07:21.228Z,18.10
2022-11-23T09:09:48.317Z,18.40
2022-11-23T09:12:15.390Z,18.70
2022-11-23T09:14:42.364Z,19.00
2022-11-23T09:17:09.667Z,19.30
2022-11-23T09:19:36.583Z,19.50
2022-11-23T09:22:03.513Z,20.00
2022-11-23T09:24:30.706Z,20.50
2022-11-23T09:26:58.428Z,20.90
2022-11-23T09:29:25.592Z,21.50
2022-11-23T09:31:53.028Z,22.00
2022-11-23T09:34:19.968Z,22.50
2022-11-23T09:36:47.495Z,23.10
2022-11-23T09:39:14.619Z,23.50
2022-11-23T09:42:06.046Z,24.00
2022-11-23T09:45:08.810Z,24.60
2022-11-23T09:48:16.794Z,25.20
2022-11-23T09:50:43.649Z,25.80
2022-11-23T09:53:18.915Z,26.20
2022-11-23T09:55:53.665Z,26.60
2022-11-23T09:58:22.467Z,27.00
2022-11-23T10:01:01.052Z,27.40
2022-11-23T10:03:28.961Z,27.20
2022-11-23T10:06:21.250Z,27.30
2022-11-23T10:08:51.273Z,27.50
2022-11-23T10:11:39.438Z,27.40
2022-11-23T10:14:33.230Z,27.50
2022-11-23T10:17:09.144Z,27.90
2022-11-23T10:20:09.730Z,28.20
2022-11-23T10:22:45.342Z,29.10
2022-11-23T10:25:18.354Z,29.50
2022-11-23T10:27:47.929Z,29.60
2022-11-23T10:30:16.649Z,30.00
2022-11-23T10:33:20.049Z,30.20
2022-11-23T10:35:47.058Z,30.40
2022-11-23T10:38:19.121Z,30.60
2022-11-23T10:41:10.842Z,30.90
2022-11-23T10:44:07.247Z,31.00
2022-11-23T10:46:34.174Z,30.90
2022-11-23T10:49:13.389Z,30.70
2022-11-23T10:51:40.709Z,30.60
2022-11-23T10:54:25.892Z,30.70
2022-11-23T10:56:54.500Z,30.80
2022-11-23T10:59:30.318Z,30.60
2022-11-23T11:02:20.105Z,30.50
2022-11-23T11:04:49.008Z,30.30
2022-11-23T11:07:20.757Z,30.20
2022-11-23T11:10:01.386Z,30.20
2022-11-23T11:12:30.345Z,30.00
2022-11-23T11:15:15.238Z,29.80
2022-11-23T11:17:42.728Z,29.80
2022-11-23T11:20:28.060Z,29.40
2022-11-23T11:22:57.105Z,28.60
2022-11-23T11:25:31.083Z,28.50
2022-11-23T11:27:59.620Z,28.70
2022-11-23T11:30:50.703Z,28.50
2022-11-23T11:33:34.854Z,28.40
2022-11-23T11:36:04.771Z,28.40
2022-11-23T11:38:36.854Z,28.50
2022-11-23T11:41:11.008Z,28.50
2022-11-23T11:43:53.355Z,28.30
2022-11-23T11:46:37.834Z,28.20
2022-11-23T11:49:12.750Z,28.40
2022-11-23T11:52:14.914Z,28.50
2022-11-23T11:55:01.795Z,28.20
2022-11-23T11:57:44.252Z,28.30
2022-11-23T12:00:17.246Z,28.50
2022-11-23T12:02:55.717Z,28.60
2022-11-23T12:05:27.644Z,28.90
2022-11-23T12:08:02.998Z,29.10
2022-11-23T12:10:55.227Z,29.30
2022-11-23T12:13:37.035Z,29.10
2022-11-23T12:16:18.312Z,29.20
2022-11-23T12:19:03.657Z,29.30
2022-11-23T12:21:39.236Z,29.40
2022-11-23T12:24:25.280Z,29.40
2022-11-23T12:27:21.773Z,29.50
2022-11-23T12:30:13.295Z,29.40
2022-11-23T12:33:01.676Z,29.30
2022-11-23T12:35:59.924Z,29.30
2022-11-23T12:38:48.471Z,29.20
2022-11-23T12:41:43.943Z,29.10
2022-11-23T12:44:44.467Z,28.90
2022-11-23T12:47:28.246Z,29.00
2022-11-23T12:50:04.057Z,29.00
2022-11-23T12:52:47.393Z,28.90
2022-11-23T12:55:29.240Z,28.80
2022-11-23T12:58:06.367Z,28.60
2022-11-23T13:00:45.954Z,28.40
2022-11-23T13:03:35.411Z,28.00
2022-11-23T13:06:14.895Z,27.80
2022-11-23T13:08:50.533Z,27.10
2022-11-23T13:11:28.279Z,26.80
2022-11-23T13:14:12.011Z,26.60
2022-11-23T13:17:13.490Z,26.50
2022-11-23T13:19:52.220Z,26.60
2022-11-23T13:22:21.289Z,26.60
2022-11-23T13:25:10.097Z,26.80
2022-11-23T13:27:48.957Z,26.60
2022-11-23T13:30:59.624Z,26.50
2022-11-23T13:33:37.441Z,26.50
2022-11-23T13:36:10.372Z,26.40
2022-11-23T13:38:42.001Z,26.20
2022-11-23T13:41:33.861Z,25.90
2022-11-23T13:44:19.058Z,25.70
2022-11-23T13:47:04.347Z,25.60
2022-11-23T13:49:59.878Z,25.50
2022-11-23T13:52:29.197Z,25.50
2022-11-23T13:55:05.623Z,25.60
2022-11-23T13:57:40.288Z,25.80
2022-11-23T14:00:44.886Z,26.00
2022-11-23T14:03:42.882Z,25.90
2022-11-23T14:06:40.699Z,25.60
2022-11-23T14:09:32.387Z,25.10
2022-11-23T14:11:59.249Z,24.60
2022-11-23T14:14:34.460Z,24.10
2022-11-23T14:17:19.909Z,23.60
2022-11-23T14:20:09.048Z,23.10
2022-11-23T14:22:51.123Z,22.50
2022-11-23T14:25:37.607Z,21.90
2022-11-23T14:28:41.927Z,21.40
2022-11-23T14:31:12.319Z,20.60
2022-11-23T14:34:16.691Z,19.60
2022-11-23T14:37:08.176Z,18.60
2022-11-23T14:39:56.094Z,17.60
2022-11-23T14:42:27.363Z,16.70
2022-11-23T14:44:56.300Z,16.00
2022-11-23T14:47:31.595Z,15.40
2022-11-23T14:49:58.867Z,14.90
2022-11-23T14:52:32.274Z,14.50
2022-11-23T14:55:02.680Z,14.10
2022-11-23T14:57:40.658Z,13.80
2022-11-23T15:00:23.596Z,13.50
2022-11-23T15:02:51.585Z,13.20
2022-11-23T15:05:27.498Z,13.00
2022-11-23T15:08:02.614Z,12.80
2022-11-23T15:10:40.294Z,12.60
2022-11-23T15:13:25.209Z,12.50
2022-11-23T15:15:55.307Z,12.30
2022-11-23T15:18:38.602Z,12.10
2022-11-23T15:21:26.594Z,11.90
2022-11-23T15:23:57.903Z,11.70
2022-11-23T15:29:34.622Z,11.50
2022-11-23T15:34:51.563Z,11.20
2022-11-23T15:37:19.133Z,11.10
2022-11-23T15:39:47.181Z,11.00
2022-11-23T15:42:23.933Z,10.90
2022-11-23T15:44:54.559Z,10.80
2022-11-23T15:47:27.203Z,10.60
2022-11-23T15:50:03.806Z,10.60
2022-11-23T15:52:36.011Z,10.50
2022-11-23T15:55:09.692Z,10.40
2022-11-23T15:57:38.599Z,10.30
2022-11-23T16:00:06.989Z,10.30
2022-11-23T16:02:39.869Z,10.20
2022-11-23T16:05:19.142Z,10.20
2022-11-23T16:08:00.639Z,10.10
2022-11-23T16:10:33.311Z,10.00
2022-11-23T16:13:02.762Z,10.00
2022-11-23T16:15:34.321Z,9.90
2022-11-23T16:18:02.387Z,9.90
2022-11-23T16:20:30.001Z,9.80
2022-11-23T16:23:00.151Z,9.80
2022-11-23T16:25:29.135Z,9.70
2022-11-23T16:28:04.647Z,9.70
2022-11-23T16:30:39.836Z,9.70
2022-11-23T16:33:14.503Z,9.60
2022-11-23T16:35:41.497Z,9.60
2022-11-23T16:38:08.559Z,9.50
2022-11-23T16:40:35.570Z,9.50
2022-11-23T16:43:04.125Z,9.40
2022-11-23T16:45:31.987Z,9.30
2022-11-23T16:48:01.167Z,9.30
2022-11-23T16:50:30.359Z,9.20
2022-11-23T16:53:01.510Z,9.20
2022-11-23T16:55:28.857Z,9.10
2022-11-23T16:57:56.447Z,9.10
2022-11-23T17:00:24.119Z,9.00
2022-11-23T17:02:51.283Z,9.00
2022-11-23T17:05:21.214Z,8.90
2022-11-23T17:07:48.245Z,8.90
2022-11-23T17:10:15.673Z,8.90
2022-11-23T17:12:51.346Z,8.90
2022-11-23T17:15:20.783Z,8.80
2022-11-23T17:17:47.778Z,8.80
2022-11-23T17:20:15.817Z,8.70
2022-11-23T17:22:43.307Z,8.70
2022-11-23T17:25:14.941Z,8.70
2022-11-23T17:27:43.770Z,8.60
2022-11-23T17:30:17.230Z,8.60
2022-11-23T17:32:44.180Z,8.50
2022-11-23T17:35:11.218Z,8.50
2022-11-23T17:37:38.210Z,8.50
2022-11-23T17:40:06.065Z,8.40
2022-11-23T17:42:33.278Z,8.40
2022-11-23T17:45:00.242Z,8.40
2022-11-23T17:47:29.592Z,8.40
2022-11-23T17:49:57.635Z,8.30
2022-11-23T17:52:25.290Z,8.30
2022-11-23T17:54:52.286Z,8.30
2022-11-23T17:57:23.520Z,8.30
2022-11-23T17:59:50.827Z,8.20
2022-11-23T18:02:19.385Z,8.20
2022-11-23T18:04:47.400Z,8.10
2022-11-23T18:07:15.757Z,8.10
2022-11-23T18:09:42.958Z,8.10
2022-11-23T18:12:10.104Z,8.10
2022-11-23T18:14:37.329Z,8.00
2022-11-23T18:17:04.334Z,8.10
2022-11-23T18:19:31.688Z,8.00
2022-11-23T18:21:59.198Z,8.00
2022-11-23T18:24:26.103Z,8.00
2022-11-23T18:26:53.021Z,8.00
2022-11-23T18:29:19.995Z,8.00
2022-11-23T18:31:46.947Z,7.90
2022-11-23T18:34:13.949Z,7.90
2022-11-23T18:36:40.835Z,7.90
2022-11-23T18:39:07.753Z,7.90
2022-11-23T18:41:34.654Z,7.90
2022-11-23T18:44:01.583Z,7.90
2022-11-23T18:46:29.497Z,7.80
2022-11-23T18:48:57.431Z,7.80
2022-11-23T18:51:24.650Z,7.80
2022-11-23T18:53:53.547Z,7.80
2022-11-23T18:56:21.338Z,7.80
2022-11-23T18:58:48.373Z,7.70
2022-11-23T19:01:21.433Z,7.70
2022-11-23T19:03:50.684Z,7.70
2022-11-23T19:06:19.373Z,7.70
2022-11-23T19:08:51.301Z,7.70
2022-11-23T19:11:21.983Z,7.70
2022-11-23T19:13:51.622Z,7.60
2022-11-23T19:16:21.752Z,7.60
2022-11-23T19:18:56.182Z,7.60
2022-11-23T19:21:25.356Z,7.50
2022-11-23T19:23:54.016Z,7.50
2022-11-23T19:26:21.583Z,7.50
2022-11-23T19:28:48.611Z,7.50
2022-11-23T19:31:21.521Z,7.50
2022-11-23T19:33:49.963Z,7.50
2022-11-23T19:36:19.497Z,7.40
2022-11-23T19:38:48.053Z,7.40
2022-11-23T19:41:15.481Z,7.50
2022-11-23T19:43:42.520Z,7.50
2022-11-23T19:46:14.317Z,7.60
2022-11-23T19:48:42.218Z,7.60
2022-11-23T19:51:14.359Z,7.50
2022-11-23T19:53:42.567Z,7.50
2022-11-23T19:56:19.585Z,7.40
2022-11-23T19:58:50.269Z,7.40
2022-11-23T20:01:19.730Z,7.30
2022-11-23T20:03:48.896Z,7.40
2022-11-23T20:06:21.858Z,7.30
2022-11-23T20:08:54.154Z,7.30
2022-11-23T20:11:21.276Z,7.20
2022-11-23T20:13:48.312Z,7.10
2022-11-23T20:16:18.049Z,7.10
2022-11-23T20:18:46.915Z,7.10
2022-11-23T20:21:16.419Z,7.10
2022-11-23T20:23:44.712Z,7.10
2022-11-23T20:26:19.135Z,7.10
2022-11-23T20:28:50.194Z,7.10
2022-11-23T20:31:22.696Z,7.10
2022-11-23T20:33:50.764Z,7.10
2022-11-23T20:36:20.423Z,7.10
2022-11-23T20:38:48.104Z,7.20
2022-11-23T20:41:20.534Z,7.30
2022-11-23T20:43:49.554Z,7.30
2022-11-23T20:46:26.382Z,7.40
2022-11-23T20:49:04.267Z,7.40
2022-11-23T20:51:31.668Z,7.50
2022-11-23T20:53:59.346Z,7.50
2022-11-23T20:56:27.446Z,7.50
2022-11-23T20:58:57.001Z,7.60
2022-11-23T21:01:24.113Z,7.60
2022-11-23T21:03:53.769Z,7.60
2022-11-23T21:06:21.597Z,7.60
2022-11-23T21:08:50.366Z,7.70
2022-11-23T21:11:36.788Z,7.70
2022-11-23T21:14:11.199Z,7.70
2022-11-23T21:16:58.633Z,7.70
2022-11-23T21:19:31.344Z,7.70
2022-11-23T21:22:02.970Z,7.80
2022-11-23T21:24:30.068Z,7.80
2022-11-23T21:26:57.181Z,7.90
2022-11-23T21:29:24.213Z,7.90
2022-11-23T21:31:51.366Z,7.90
2022-11-23T21:34:21.172Z,7.90
2022-11-23T21:36:49.237Z,7.90
2022-11-23T21:39:16.852Z,7.90
2022-11-23T21:41:44.609Z,8.00
2022-11-23T21:44:12.087Z,8.00
2022-11-23T21:46:40.796Z,8.00
2022-11-23T21:49:08.474Z,8.00
2022-11-23T21:51:36.220Z,8.00
2022-11-23T21:54:06.478Z,8.10
2022-11-23T21:56:34.621Z,8.10
2022-11-23T21:59:02.072Z,8.10
2022-11-23T22:01:31.160Z,8.10
2022-11-23T22:04:02.851Z,8.10
2022-11-23T22:06:30.336Z,8.10
2022-11-23T22:08:59.880Z,8.10
2022-11-23T22:11:29.111Z,8.10
2022-11-23T22:13:57.573Z,8.00
2022-11-23T22:16:30.094Z,8.00
2022-11-23T22:18:57.648Z,7.80
2022-11-23T22:21:27.104Z,7.70
2022-11-23T22:23:54.383Z,7.60
2022-11-23T22:26:22.033Z,7.50
2022-11-23T22:28:50.923Z,7.50
2022-11-23T22:31:25.604Z,7.40
2022-11-23T22:33:53.553Z,7.40
2022-11-23T22:36:23.250Z,7.40
2022-11-23T22:39:01.579Z,7.30
2022-11-23T22:41:30.013Z,7.30
2022-11-23T22:43:57.000Z,7.20
2022-11-23T22:46:25.306Z,7.20
2022-11-23T22:48:53.356Z,7.10
2022-11-23T22:51:22.682Z,7.00
2022-11-23T22:53:58.312Z,7.00
2022-11-23T22:56:26.532Z,7.00
2022-11-23T22:58:53.762Z,7.00
2022-11-23T23:01:23.411Z,7.00
2022-11-23T23:03:58.978Z,7.00
2022-11-23T23:06:28.486Z,7.00
2022-11-23T23:08:58.108Z,6.90
2022-11-23T23:11:28.019Z,6.80
2022-11-23T23:13:55.271Z,6.70
2022-11-23T23:16:22.682Z,6.70
2022-11-23T23:18:49.836Z,6.70
2022-11-23T23:21:19.402Z,6.60
2022-11-23T23:23:48.776Z,6.60
2022-11-23T23:26:17.853Z,6.60
2022-11-23T23:28:45.806Z,6.60
2022-11-23T23:31:16.309Z,6.60
2022-11-23T23:33:45.688Z,6.60
2022-11-23T23:36:17.985Z,6.60
2022-11-23T23:38:44.981Z,6.60
2022-11-23T23:41:13.100Z,6.60
2022-11-23T23:43:40.838Z,6.60
2022-11-23T23:46:10.142Z,6.50
2022-11-23T23:48:39.637Z,6.50
2022-11-23T23:51:14.791Z,6.50
2022-11-23T23:53:42.661Z,6.50
2022-11-23T23:56:15.867Z,6.50
2022-11-23T23:58:43.243Z,6.50
